Flight Track Log - Related Links

Times and Time Zones

All times are in EDT time to prevent confusion due to time zone crossing. See the N546QS flight status page for this flight to view local times or setup timezone preferences in your user account.

Time Position Orientation Groundspeed Altitude Reporting Facility
EDT Latitude Longitude Course Direction KTS MPH feet Rate Location/Type
Sat 06:31:08 PM 42.3667 -71.0167 160° South 164 189 900  Level KA90
Sat 06:31:41 PM 42.3333 -71.0000 160° South 173 199 2,800 3,818 Climbing KA90
Sat 06:32:47 PM 42.3167 -70.9167 105° East 255 293 7,200 3,312 Climbing KA90
Sat 06:33:46 PM 42.3500 -70.8167 66° East 312 359 9,700 1,487 Climbing KA90
Sat 06:34:44 PM 42.4333 -70.7500 31° Northeast 360 414 10,100 214 Climbing KA90
Sat 06:35:38 PM 42.5000 -70.7500 360° North 349 402 10,100 -53 Level KA90
Sat 06:36:38 PM 42.5667 -70.8500 312° West 335 386 10,000 -53 Descending KA90
Sat 06:37:32 PM 42.6167 -70.9500 304° West 335 386 10,000  Level KA90
Sat 06:38:32 PM 42.6833 -71.0333 317° Northwest 334 384 10,000  Level KA90
Sat 06:39:29 PM 42.7333 -71.1333 304° West 335 386 10,000  Level KA90
Sat 06:40:29 PM 42.7833 -71.2333 304° West 334 384 10,000  Level KA90
Sat 06:41:29 PM 42.8500 -71.3333 312° West 331 381 10,000  Level KA90
Sat 06:42:32 PM 42.9167 -71.4167 318° Northwest 335 386 10,000  Level KA90
Sat 06:43:32 PM 42.9833 -71.5000 318° Northwest 334 384 10,000  Level KA90
Sat 06:44:56 PM 43.0914 -71.6069 324° Northwest 368 423 10,000  Level Boston Center
Sat 06:45:56 PM 43.1564 -71.6717 324° Northwest 335 386 10,000  Level Boston Center
Sat 06:46:56 PM 43.2236 -71.7447 322° Northwest 297 342 10,000 -50 Level Boston Center
Sat 06:47:56 PM 43.2781 -71.8014 323° Northwest 275 316 9,900 -727 Descending Boston Center
Sat 06:49:08 PM 43.3450 -71.8692 324° Northwest 275 316 8,400 -1,500 Descending Boston Center
Sat 06:50:08 PM 43.4164 -71.9456 322° Northwest 275 316 6,600 -1,450 Descending Boston Center
Sat 06:51:08 PM 43.4750 -72.0025 325° Northwest 275 316 5,500 -800 Descending Boston Center
Sat 06:52:08 PM 43.5272 -72.0564 323° Northwest 253 291 5,000 -250 Descending Boston Center
Sat 06:53:08 PM 43.5775 -72.1133 321° Northwest 242 278 5,000  Level Boston Center
Sat 06:54:08 PM 43.6275 -72.1675 322° Northwest 237 273 5,000  Level Boston Center

Login

Don't have an account? Register now (free) for customized features, flight alerts, and more!